ESGJ

Jönköping Airport

Jönköping, Sweden
TAF ESGJ 251730Z 2518/2601 24010KT CAVOK BECMG 2523/2601 26016G28KT
Issued Valid From Valid To
Sep-25 @ 17:30 UTC
(23 minutes ago)
Sep-25 @ 18:00 UTC
(in 7 minutes)
Sep-26 @ 01:00 UTC
(in 7 hours)
Sep-25 @ 18:00 to Sep-25 @ 23:00
TAF ESGJ 251730Z 2518/2601 24010KT CAVOK
Wind Visibility Clouds Conditions
240° at 10 knots 10,000+ meters
  • No significant clouds
Becoming Sep-25 @ 23:00 to Sep-26 @ 01:00
BECMG 2523/2601 26016G28KT
Wind Visibility Clouds Conditions
260° at 16 knots
 Gusting to 28 knots
10,000+ meters
  • No significant clouds
TAF ESGJ 251730Z 2518/2601 24010KT CAVOK BECMG 2523/2601 26016G28KT
Issued Sep-25 @ 17:30 UTC
(23 minutes ago)
Valid From Sep-25 @ 18:00 UTC
(in 7 minutes)
Valid To Sep-26 @ 01:00 UTC
(in 7 hours)
Sep-25 @ 18:00 - Sep-25 @ 23:00
Wind Visibility
240° at 10 knots 10,000+ meters
Clouds
  • No significant clouds
Conditions
Becoming Sep-25 @ 23:00 - Sep-26 @ 01:00
Wind Visibility
260° at 16 knots
 Gusting to 28 knots
10,000+ meters
Clouds
  • No significant clouds
Conditions